Time;durP1;ratioP1;P1;durP2;ratioP2;P2;SDS_P1;SDS_P2;PMS_P1;PMS_P2;Temp;Humidity;BMP_temperature;BMP_pressure;BME280_temperature;BME280_humidity;BME280_pressure;Samples;Min_cycle;Max_cycle;Signal;HPM_P1;HPM_P2
2023/01/01 00:01:11;;;;;;;5.60;3.90;;;;;;;9.94;99.98;99438.17;104844;1303;22653;-31
2023/01/01 00:03:37;;;;;;;7.40;4.50;;;;;;;9.97;99.89;99442.33;104701;1292;22898;-34
2023/01/01 00:06:07;;;;;;;21.90;4.90;;;;;;;9.99;99.66;99450.43;104915;1288;22791;-31
2023/01/01 00:08:33;;;;;;;10.60;5.00;;;;;;;10.00;99.49;99449.09;104747;1292;22808;-35
2023/01/01 00:11:01;;;;;;;13.00;5.50;;;;;;;10.04;99.22;99451.67;104850;1303;22794;-31
2023/01/01 00:13:27;;;;;;;9.70;4.90;;;;;;;10.07;98.75;99448.41;104811;1292;22559;-32
2023/01/01 00:15:52;;;;;;;8.80;4.80;;;;;;;10.06;98.60;99453.83;104833;1292;22760;-34
2023/01/01 00:18:18;;;;;;;10.40;5.30;;;;;;;10.03;98.60;99450.98;104720;1289;22789;-30
2023/01/01 00:20:44;;;;;;;12.50;6.00;;;;;;;9.98;98.77;99449.89;104703;1292;22666;-34
2023/01/01 00:23:11;;;;;;;7.50;4.40;;;;;;;9.98;98.82;99452.62;104785;1292;22681;-31
2023/01/01 00:25:39;;;;;;;20.70;6.10;;;;;;;9.94;98.66;99457.00;104549;1295;24795;-34
2023/01/01 00:28:05;;;;;;;8.00;4.90;;;;;;;9.92;98.65;99457.42;104698;1301;22678;-31
2023/01/01 00:30:32;;;;;;;8.00;4.60;;;;;;;9.88;98.84;99455.41;104857;1292;22982;-34
2023/01/01 00:32:58;;;;;;;7.40;5.50;;;;;;;9.85;98.72;99452.23;104769;1292;22553;-30
2023/01/01 00:35:24;;;;;;;10.10;6.30;;;;;;;9.82;98.56;99451.30;104580;1295;22799;-30
2023/01/01 00:37:50;;;;;;;13.80;6.70;;;;;;;9.89;98.30;99453.36;104590;1292;22556;-30
2023/01/01 00:40:17;;;;;;;5.40;3.40;;;;;;;9.87;98.19;99451.84;104821;1303;22663;-31
2023/01/01 00:42:43;;;;;;;8.10;6.10;;;;;;;9.95;97.65;99453.83;104778;1303;22692;-36
2023/01/01 00:45:09;;;;;;;8.60;5.20;;;;;;;9.95;97.31;99458.09;104800;1292;22660;-33
2023/01/01 00:47:36;;;;;;;11.10;6.30;;;;;;;9.94;97.29;99465.41;104911;1303;24436;-33
2023/01/01 00:50:02;;;;;;;20.40;5.60;;;;;;;9.87;97.34;99465.96;104929;1288;22558;-30
2023/01/01 00:52:28;;;;;;;7.40;5.40;;;;;;;9.79;97.46;99461.09;104832;1303;22626;-30
2023/01/01 00:54:53;;;;;;;9.00;5.60;;;;;;;9.77;97.52;99482.91;104662;1304;22799;-31
2023/01/01 00:57:20;;;;;;;11.50;5.30;;;;;;;9.79;97.37;99485.43;104773;1295;24275;-30
2023/01/01 00:59:45;;;;;;;8.00;5.50;;;;;;;9.75;97.48;99494.52;104821;1292;24310;-34
2023/01/01 01:02:11;;;;;;;9.30;5.90;;;;;;;9.74;97.46;99490.02;104658;1304;22563;-34
2023/01/01 01:04:37;;;;;;;7.40;4.80;;;;;;;9.78;97.16;99495.20;104798;1289;22796;-34
2023/01/01 01:07:03;;;;;;;7.30;4.60;;;;;;;9.76;97.11;99504.48;104826;1304;23006;-31
2023/01/01 01:09:29;;;;;;;9.70;6.20;;;;;;;9.74;97.28;99506.67;104876;1292;23159;-34
2023/01/01 01:11:55;;;;;;;9.00;5.70;;;;;;;9.73;97.06;99507.66;104893;1302;22937;-35
2023/01/01 01:14:20;;;;;;;9.00;5.30;;;;;;;9.69;97.20;99503.69;104658;1295;22667;-31
2023/01/01 01:16:46;;;;;;;8.30;5.50;;;;;;;9.62;97.40;99504.42;104742;1295;24407;-35
2023/01/01 01:19:17;;;;;;;11.40;4.80;;;;;;;9.55;97.67;99503.84;104811;1292;22895;-35
2023/01/01 01:21:43;;;;;;;8.50;5.50;;;;;;;9.52;97.91;99504.55;104843;1292;22687;-35
2023/01/01 01:24:09;;;;;;;11.70;4.50;;;;;;;9.58;97.80;99507.76;104803;1292;23036;-31
2023/01/01 01:26:35;;;;;;;22.40;4.90;;;;;;;9.59;97.55;99514.09;104708;1292;22895;-31
2023/01/01 01:29:02;;;;;;;11.80;6.80;;;;;;;9.56;97.45;99516.77;104711;1289;22791;-35
2023/01/01 01:31:29;;;;;;;7.30;5.60;;;;;;;9.65;97.23;99518.30;104654;1292;22638;-31
2023/01/01 01:33:56;;;;;;;5.60;4.20;;;;;;;9.65;97.12;99521.34;104746;1292;22559;-35
2023/01/01 01:36:22;;;;;;;15.20;5.90;;;;;;;9.65;96.81;99520.07;104684;1292;23029;-35
2023/01/01 01:38:48;;;;;;;7.50;4.60;;;;;;;9.66;96.74;99522.88;104829;1292;22639;-31
2023/01/01 01:41:16;;;;;;;6.60;4.30;;;;;;;9.68;96.62;99524.80;104668;1292;22821;-35
2023/01/01 01:43:50;;;;;;;9.60;5.20;;;;;;;9.66;96.52;99524.65;104881;1301;24502;-35
2023/01/01 01:46:19;;;;;;;4.80;4.00;;;;;;;9.67;96.23;99523.92;104895;1292;24312;-31
2023/01/01 01:48:47;;;;;;;7.50;4.40;;;;;;;9.69;96.25;99526.02;104780;1288;23025;-34
2023/01/01 01:51:15;;;;;;;7.40;4.80;;;;;;;9.68;96.05;99519.35;104905;1292;23039;-30
2023/01/01 01:53:44;;;;;;;5.90;3.80;;;;;;;9.70;96.01;99521.77;104737;1292;23161;-34
2023/01/01 01:56:13;;;;;;;12.90;5.30;;;;;;;9.72;95.85;99520.02;104709;1304;23171;-34
2023/01/01 01:58:39;;;;;;;7.50;3.90;;;;;;;9.71;95.80;99517.78;104820;1288;23156;-34
2023/01/01 02:01:05;;;;;;;7.00;4.40;;;;;;;9.69;95.74;99520.65;104811;1292;23178;-34
2023/01/01 02:03:36;;;;;;;6.20;4.20;;;;;;;9.63;96.05;99524.33;104573;1295;22660;-31
2023/01/01 02:06:02;;;;;;;6.80;4.10;;;;;;;9.58;96.20;99521.45;104815;1289;23042;-39
2023/01/01 02:08:28;;;;;;;9.10;5.80;;;;;;;9.61;96.25;99521.81;104889;1292;23074;-36
2023/01/01 02:10:54;;;;;;;7.70;4.00;;;;;;;9.59;96.16;99520.27;104880;1292;23288;-36
2023/01/01 02:13:20;;;;;;;10.50;4.70;;;;;;;9.62;96.10;99524.77;104782;1292;22667;-32
2023/01/01 02:16:07;;;;;;;8.80;5.40;;;;;;;9.60;96.09;99528.20;104881;1292;23035;-35
2023/01/01 02:19:00;;;;;;;10.80;4.40;;;;;;;9.54;96.42;99529.41;104806;1292;22815;-36
2023/01/01 02:21:31;;;;;;;9.40;5.00;;;;;;;9.51;96.59;99533.45;104683;1304;22671;-36
2023/01/01 02:24:10;;;;;;;7.10;5.30;;;;;;;9.44;96.86;99537.73;104915;1300;24292;-31
2023/01/01 02:26:51;;;;;;;5.70;3.60;;;;;;;9.39;97.35;99546.31;104405;1294;23026;-32
2023/01/01 02:29:31;;;;;;;11.10;4.20;;;;;;;9.33;97.58;99549.30;104959;1288;23963;-36
2023/01/01 02:32:10;;;;;;;5.70;3.70;;;;;;;9.37;97.48;99548.56;104736;1292;22982;-32
2023/01/01 02:34:45;;;;;;;7.50;3.80;;;;;;;9.39;97.48;99550.78;104757;1292;22561;-37
2023/01/01 02:37:12;;;;;;;6.20;4.50;;;;;;;9.40;97.21;99556.77;104858;1289;22678;-30
2023/01/01 02:39:41;;;;;;;10.10;5.10;;;;;;;9.45;96.99;99559.36;104891;1292;22689;-32
2023/01/01 02:42:07;;;;;;;5.70;3.20;;;;;;;9.41;96.98;99565.44;104667;1289;24304;-30
2023/01/01 02:44:39;;;;;;;7.10;4.80;;;;;;;9.33;97.15;99565.63;104553;1294;22654;-30
2023/01/01 02:47:06;;;;;;;6.80;3.70;;;;;;;9.31;97.41;99567.48;104699;1289;23042;-34
2023/01/01 02:49:36;;;;;;;5.80;4.40;;;;;;;9.31;97.53;99569.23;104869;1289;22574;-34
2023/01/01 02:52:05;;;;;;;9.60;5.60;;;;;;;9.32;97.39;99565.77;104661;1289;22566;-34
2023/01/01 02:54:40;;;;;;;11.30;4.70;;;;;;;9.22;97.66;99567.81;104612;1293;23323;-30
2023/01/01 02:57:18;;;;;;;8.10;4.80;;;;;;;9.24;97.62;99569.54;104699;1304;22663;-34
2023/01/01 03:02:40;;;;;;;10.50;5.00;;;;;;;9.29;97.92;99569.90;104733;1292;22854;-32
2023/01/01 03:05:24;;;;;;;8.20;5.20;;;;;;;9.33;97.39;99572.44;104742;1292;22629;-37
2023/01/01 03:08:17;;;;;;;6.00;4.50;;;;;;;9.36;97.23;99567.81;104868;1288;24289;-35
2023/01/01 03:10:50;;;;;;;6.50;4.20;;;;;;;9.44;96.57;99561.98;104869;1304;22966;-31
2023/01/01 03:13:17;;;;;;;;;;;;;;;9.52;95.82;99562.27;104765;1292;22689;-35
2023/01/01 03:15:55;;;;;;;;;;;;;;;9.47;95.63;99563.96;104784;1295;23158;-32
2023/01/01 03:18:23;;;;;;;;;;;;;;;9.48;95.65;99566.37;104678;1292;22942;-32
2023/01/01 03:20:50;;;;;;;5.90;4.70;;;;;;;9.52;95.10;99564.20;104808;1292;22802;-35
2023/01/01 03:23:22;;;;;;;9.50;5.70;;;;;;;9.52;94.82;99562.02;104681;1292;23077;-31
2023/01/01 03:25:49;;;;;;;7.40;5.00;;;;;;;9.46;95.17;99558.88;104745;1288;22683;-32
2023/01/01 03:28:18;;;;;;;7.30;4.50;;;;;;;9.49;94.94;99563.58;104908;1304;22582;-35
2023/01/01 03:30:45;;;;;;;8.90;6.10;;;;;;;9.54;94.63;99567.07;104740;1292;22657;-32
2023/01/01 03:33:15;;;;;;;7.70;5.70;;;;;;;9.51;94.46;99564.73;104868;1292;22567;-36
2023/01/01 03:35:55;;;;;;;6.70;5.10;;;;;;;9.45;94.59;99561.46;104937;1292;22562;-37
2023/01/01 03:38:24;;;;;;;15.80;5.00;;;;;;;9.48;94.54;99566.70;104838;1289;22958;-35
2023/01/01 03:40:52;;;;;;;10.00;5.50;;;;;;;9.48;94.49;99567.60;104949;1289;24391;-31
2023/01/01 03:43:23;;;;;;;8.00;5.10;;;;;;;9.59;93.76;99569.69;104721;1292;22740;-31
2023/01/01 03:45:49;;;;;;;5.70;5.10;;;;;;;9.56;93.75;99569.61;104759;1288;22664;-31
2023/01/01 03:48:15;;;;;;;6.90;5.40;;;;;;;9.59;93.42;99570.39;104654;1304;23167;-35
2023/01/01 03:50:49;;;;;;;11.60;5.30;;;;;;;9.63;93.23;99564.91;104680;1291;24299;-35
2023/01/01 03:53:36;;;;;;;8.40;5.10;;;;;;;9.60;93.24;99561.48;104710;1289;22556;-35
2023/01/01 03:56:25;;;;;;;12.80;6.60;;;;;;;9.57;93.20;99568.07;104745;1292;24285;-31
2023/01/01 03:59:15;;;;;;;8.10;3.30;;;;;;;9.52;93.23;99566.09;104700;1295;22933;-32
2023/01/01 04:01:50;;;;;;;17.90;5.80;;;;;;;9.59;92.79;99563.04;104815;1292;22628;-33
2023/01/01 04:04:16;;;;;;;7.30;5.20;;;;;;;9.50;93.03;99562.66;104519;1292;22650;-36
2023/01/01 04:06:41;;;;;;;5.30;4.20;;;;;;;9.49;92.99;99560.12;104518;1304;22857;-35
2023/01/01 04:09:10;;;;;;;8.70;5.00;;;;;;;9.48;92.96;99560.13;104721;1294;22816;-30
2023/01/01 04:14:05;;;;;;;5.70;4.30;;;;;;;9.41;93.20;99566.02;104939;1291;22605;-35
2023/01/01 04:16:31;;;;;;;10.20;5.40;;;;;;;9.39;93.25;99575.69;104864;1292;22666;-31
2023/01/01 04:18:57;;;;;;;8.60;4.60;;;;;;;9.37;93.28;99569.81;104793;1304;23031;-32
2023/01/01 04:21:23;;;;;;;5.20;4.00;;;;;;;9.36;93.29;99571.15;104646;1292;22660;-34
2023/01/01 04:23:48;;;;;;;7.80;4.30;;;;;;;9.32;93.41;99575.17;104945;1293;24503;-34
2023/01/01 04:26:15;;;;;;;9.30;6.00;;;;;;;9.31;93.41;99577.70;104917;1292;22559;-34
2023/01/01 04:28:41;;;;;;;11.00;5.00;;;;;;;9.29;93.52;99579.87;104701;1292;23032;-34
2023/01/01 04:31:08;;;;;;;8.60;4.90;;;;;;;9.26;93.68;99583.84;104678;1292;22569;-34
2023/01/01 04:33:34;;;;;;;7.90;4.40;;;;;;;9.25;93.83;99587.89;104743;1292;22671;-30
2023/01/01 04:36:05;;;;;;;7.50;4.00;;;;;;;9.20;94.06;99590.09;104844;1304;22568;-34
2023/01/01 05:14:58;;;;;;;4.40;3.60;;;;;;;8.83;97.15;99618.05;104417;1305;559804;-30
2023/01/01 05:17:24;;;;;;;7.00;4.40;;;;;;;8.78;97.17;99624.71;104318;1303;350340;-38
2023/01/01 05:19:50;;;;;;;7.00;4.50;;;;;;;8.74;97.19;99629.02;104774;1302;24365;-35
2023/01/01 05:22:16;;;;;;;6.20;4.00;;;;;;;8.68;97.23;99634.77;104778;1292;24301;-35
2023/01/01 05:24:42;;;;;;;4.40;3.40;;;;;;;8.69;97.22;99634.48;104900;1292;23025;-36
2023/01/01 05:27:08;;;;;;;8.90;4.90;;;;;;;8.67;97.12;99637.91;104644;1302;24301;-29
2023/01/01 05:29:34;;;;;;;8.40;4.50;;;;;;;8.69;97.09;99641.82;104860;1292;22675;-33
2023/01/01 05:32:00;;;;;;;8.60;4.60;;;;;;;8.65;97.09;99638.66;104758;1292;24395;-32
2023/01/01 05:34:26;;;;;;;9.60;4.60;;;;;;;8.60;97.20;99637.34;104731;1292;24273;-31
2023/01/01 05:36:52;;;;;;;5.80;3.90;;;;;;;8.56;97.46;99640.97;104686;1303;23168;-36
2023/01/01 05:39:18;;;;;;;6.70;3.90;;;;;;;8.57;97.52;99641.04;104774;1292;23031;-30
2023/01/01 05:41:44;;;;;;;7.70;3.70;;;;;;;8.58;97.50;99643.02;104798;1302;22796;-34
2023/01/01 05:44:10;;;;;;;6.90;3.70;;;;;;;8.58;97.40;99633.14;104987;1295;24313;-30
2023/01/01 05:46:36;;;;;;;5.40;4.30;;;;;;;8.55;97.38;99632.04;104842;1292;23172;-30
2023/01/01 05:49:02;;;;;;;6.50;3.70;;;;;;;8.61;97.21;99631.88;104701;1279;23156;-29
2023/01/01 05:51:29;;;;;;;7.00;4.50;;;;;;;8.66;96.99;99633.98;104851;1292;24305;-34
2023/01/01 05:53:54;;;;;;;4.10;2.50;;;;;;;8.66;96.69;99632.67;104568;1298;24309;-30
2023/01/01 05:56:20;;;;;;;5.70;4.00;;;;;;;8.63;96.87;99638.05;104756;1295;23172;-30
2023/01/01 05:58:46;;;;;;;12.90;4.10;;;;;;;8.59;96.93;99638.64;104747;1289;22639;-34
2023/01/01 06:01:16;;;;;;;5.50;2.90;;;;;;;8.57;97.12;99639.39;104734;1292;24301;-30
2023/01/01 06:03:42;;;;;;;10.90;4.70;;;;;;;8.58;97.15;99640.59;104752;1292;24494;-31
2023/01/01 06:06:09;;;;;;;9.60;4.10;;;;;;;8.60;97.13;99642.85;104912;1292;22812;-35
2023/01/01 06:08:35;;;;;;;7.20;4.30;;;;;;;8.65;96.93;99647.23;104676;1302;24419;-34
2023/01/01 06:11:02;;;;;;;6.10;4.30;;;;;;;8.68;96.85;99648.19;104731;1288;24381;-35
2023/01/01 06:13:29;;;;;;;5.20;3.40;;;;;;;8.71;96.64;99648.23;104889;1289;22780;-34
2023/01/01 06:15:56;;;;;;;6.20;3.40;;;;;;;8.69;96.66;99645.61;104807;1292;23045;-31
2023/01/01 06:18:23;;;;;;;4.90;3.10;;;;;;;8.66;96.59;99643.55;104622;1303;24228;-31
2023/01/01 06:20:49;;;;;;;5.40;2.70;;;;;;;8.61;96.77;99638.77;104877;1303;24278;-36
2023/01/01 06:23:15;;;;;;;5.80;3.90;;;;;;;8.74;96.51;99640.18;104779;1292;24432;-33
2023/01/01 06:25:41;;;;;;;7.60;3.30;;;;;;;8.96;95.53;99646.84;104600;1302;24305;-29
2023/01/01 06:28:07;;;;;;;2.90;2.10;;;;;;;9.05;94.76;99644.89;104875;1301;22812;-30
2023/01/01 06:30:33;;;;;;;5.00;2.30;;;;;;;9.07;94.39;99642.82;104786;1302;23161;-31
2023/01/01 06:33:00;;;;;;;5.70;3.40;;;;;;;9.05;94.53;99640.73;104873;1292;22651;-35
2023/01/01 06:35:26;;;;;;;5.40;2.90;;;;;;;8.99;94.65;99642.23;104894;1292;22789;-30
2023/01/01 06:37:52;;;;;;;5.80;2.60;;;;;;;8.93;94.67;99642.38;104777;1302;24390;-34
2023/01/01 06:40:18;;;;;;;4.30;2.40;;;;;;;8.94;94.84;99648.93;104736;1292;25432;-34
2023/01/01 06:42:44;;;;;;;4.30;2.60;;;;;;;8.90;94.86;99649.40;104745;1289;24798;-40
2023/01/01 06:45:10;;;;;;;3.20;2.80;;;;;;;9.01;94.47;99652.35;104843;1301;24385;-32
2023/01/01 06:47:36;;;;;;;5.40;3.20;;;;;;;9.12;93.95;99649.45;104690;1292;24188;-34
2023/01/01 06:50:03;;;;;;;4.10;2.70;;;;;;;9.08;93.88;99652.55;104815;1302;22783;-35
2023/01/01 06:52:28;;;;;;;4.20;2.80;;;;;;;9.04;94.14;99651.30;104865;1300;24420;-35
2023/01/01 06:54:54;;;;;;;4.10;2.70;;;;;;;9.03;94.05;99653.52;104511;1288;25446;-35
2023/01/01 06:57:20;;;;;;;6.00;2.30;;;;;;;9.00;94.20;99655.69;104844;1288;24431;-35
2023/01/01 06:59:46;;;;;;;4.10;2.50;;;;;;;9.01;94.34;99655.77;104698;1292;24308;-34
2023/01/01 07:02:12;;;;;;;3.90;2.00;;;;;;;9.05;94.30;99650.95;104809;1292;24417;-30
2023/01/01 07:04:38;;;;;;;3.00;1.90;;;;;;;9.09;93.95;99658.17;104572;1301;25361;-30
2023/01/01 07:07:04;;;;;;;2.30;1.50;;;;;;;9.11;93.75;99667.20;104786;1292;23109;-35
2023/01/01 07:09:30;;;;;;;3.70;2.50;;;;;;;9.21;93.57;99669.66;104861;1292;23035;-35
2023/01/01 07:11:55;;;;;;;5.60;3.10;;;;;;;9.29;93.25;99673.11;104700;1303;22809;-31
2023/01/01 07:14:22;;;;;;;5.30;3.50;;;;;;;9.36;92.89;99680.92;104847;1292;22664;-34
2023/01/01 07:16:47;;;;;;;3.50;2.40;;;;;;;9.41;92.65;99679.64;104760;1292;24339;-31
2023/01/01 07:19:13;;;;;;;4.40;2.80;;;;;;;9.47;92.26;99680.44;104641;1303;24518;-35
2023/01/01 07:21:43;;;;;;;2.50;1.50;;;;;;;9.50;92.04;99685.11;104778;1295;24298;-35
2023/01/01 07:24:12;;;;;;;3.80;2.20;;;;;;;9.54;91.61;99684.30;104836;1303;24314;-32
2023/01/01 07:26:39;;;;;;;4.20;2.40;;;;;;;9.57;91.54;99692.65;104841;1303;24320;-34
2023/01/01 07:29:07;;;;;;;3.60;2.70;;;;;;;9.57;91.30;99695.30;104715;1292;24206;-31
2023/01/01 07:31:34;;;;;;;3.60;1.70;;;;;;;9.63;91.03;99697.16;104832;1292;22623;-34
2023/01/01 07:34:00;;;;;;;2.10;1.70;;;;;;;9.70;90.46;99698.33;104853;1292;23048;-31
2023/01/01 07:36:26;;;;;;;2.60;2.20;;;;;;;9.73;90.26;99701.34;104715;1303;23302;-30
2023/01/01 07:38:52;;;;;;;7.20;2.70;;;;;;;9.76;89.98;99703.11;104763;1295;24341;-34
2023/01/01 07:41:18;;;;;;;4.80;2.60;;;;;;;9.76;90.03;99713.68;104807;1292;23079;-35
2023/01/01 07:43:44;;;;;;;3.50;2.20;;;;;;;9.74;90.14;99711.46;104729;1301;24278;-31
2023/01/01 07:46:11;;;;;;;6.10;2.10;;;;;;;9.78;89.96;99712.36;104904;1295;23035;-39
2023/01/01 07:48:37;;;;;;;3.90;1.80;;;;;;;9.84;89.62;99718.30;104757;1292;24273;-34
2023/01/01 07:51:03;;;;;;;4.00;2.50;;;;;;;9.78;89.94;99717.71;104812;1302;24218;-34
2023/01/01 07:53:29;;;;;;;4.10;3.20;;;;;;;9.80;89.65;99712.23;104590;1301;23024;-30
2023/01/01 07:55:55;;;;;;;3.60;2.40;;;;;;;9.78;89.72;99720.41;104719;1295;24270;-31
2023/01/01 07:58:21;;;;;;;4.10;2.70;;;;;;;9.75;89.93;99716.84;104645;1295;23021;-35
2023/01/01 08:00:47;;;;;;;5.60;2.60;;;;;;;9.75;90.12;99722.18;104751;1292;23281;-35
2023/01/01 08:03:14;;;;;;;3.30;1.80;;;;;;;9.81;90.01;99722.39;104664;1303;24381;-31
2023/01/01 08:05:40;;;;;;;5.60;3.50;;;;;;;9.91;89.96;99723.71;104754;1303;22684;-33
2023/01/01 08:08:06;;;;;;;1.60;1.50;;;;;;;9.98;89.92;99723.04;104872;1303;23165;-34
2023/01/01 08:10:32;;;;;;;3.50;2.50;;;;;;;10.05;89.35;99718.96;104704;1303;24304;-34
2023/01/01 08:13:00;;;;;;;8.60;2.40;;;;;;;10.11;89.15;99726.64;104699;1295;22788;-34
2023/01/01 08:15:26;;;;;;;3.80;2.40;;;;;;;10.19;88.71;99729.73;104786;1303;22560;-35
2023/01/01 08:17:56;;;;;;;4.70;2.50;;;;;;;10.29;88.49;99729.28;104684;1302;22675;-30
2023/01/01 08:20:22;;;;;;;5.20;2.20;;;;;;;10.49;87.76;99728.86;104794;1280;25510;-34
2023/01/01 08:22:48;;;;;;;3.10;2.30;;;;;;;10.66;86.94;99725.81;104862;1289;24301;-31
2023/01/01 08:25:14;;;;;;;3.80;2.30;;;;;;;10.85;85.93;99725.18;104802;1302;24279;-32
2023/01/01 08:27:39;;;;;;;10.70;3.30;;;;;;;11.00;85.16;99731.55;104744;1288;22800;-36
2023/01/01 08:30:06;;;;;;;5.30;2.70;;;;;;;11.13;84.46;99719.85;104525;1303;24320;-32
2023/01/01 08:32:31;;;;;;;4.00;3.00;;;;;;;11.16;83.83;99720.75;104728;1292;24429;-32
2023/01/01 08:34:57;;;;;;;3.60;2.20;;;;;;;11.14;83.93;99722.00;104858;1292;22988;-36
2023/01/01 08:37:23;;;;;;;3.80;2.30;;;;;;;11.15;84.19;99721.40;104801;1292;23028;-36
2023/01/01 08:39:50;;;;;;;4.90;3.20;;;;;;;11.32;83.82;99723.88;104747;1292;25354;-36
2023/01/01 08:42:16;;;;;;;4.00;2.50;;;;;;;11.54;82.94;99718.35;104845;1292;23035;-36
2023/01/01 08:44:42;;;;;;;3.60;2.50;;;;;;;11.67;82.21;99723.00;104777;1295;22812;-36
2023/01/01 08:47:17;;;;;;;6.50;3.50;;;;;;;11.82;81.18;99725.47;104798;1292;22786;-32
2023/01/01 08:49:43;;;;;;;4.40;3.30;;;;;;;11.86;81.60;99729.41;104894;1303;26648;-31
2023/01/01 08:52:09;;;;;;;4.80;2.50;;;;;;;11.99;81.15;99734.92;104763;1292;24589;-31
2023/01/01 08:54:35;;;;;;;3.50;2.40;;;;;;;12.09;80.25;99731.63;104792;1292;22648;-35
2023/01/01 08:57:01;;;;;;;8.20;4.00;;;;;;;12.28;79.66;99737.91;104746;1301;22572;-30
2023/01/01 08:59:27;;;;;;;8.00;2.40;;;;;;;12.39;78.83;99740.89;104719;1286;24282;-30
2023/01/01 09:01:53;;;;;;;4.50;3.50;;;;;;;12.49;78.21;99741.58;104660;1295;23035;-35
2023/01/01 09:04:18;;;;;;;5.00;3.20;;;;;;;12.63;77.52;99735.66;104845;1295;24426;-35
2023/01/01 09:06:44;;;;;;;5.00;3.30;;;;;;;12.73;77.38;99732.80;104800;1292;24624;-36
2023/01/01 09:09:10;;;;;;;5.20;3.00;;;;;;;12.80;76.14;99735.38;104659;1303;24523;-35
2023/01/01 09:11:35;;;;;;;11.10;3.10;;;;;;;12.84;75.96;99739.83;104491;1296;23162;-36
2023/01/01 09:14:01;;;;;;;4.70;3.00;;;;;;;12.94;75.66;99741.73;104692;1292;22657;-35
2023/01/01 09:16:27;;;;;;;7.80;4.00;;;;;;;12.97;75.22;99748.13;104823;1292;22788;-32
2023/01/01 09:18:53;;;;;;;7.00;3.30;;;;;;;12.98;75.05;99745.88;104767;1292;24428;-32
2023/01/01 09:21:19;;;;;;;7.00;3.90;;;;;;;13.01;75.63;99741.83;104724;1289;23165;-32
2023/01/01 09:23:45;;;;;;;10.50;4.20;;;;;;;12.99;74.63;99742.91;104661;1302;23298;-36
2023/01/01 09:26:10;;;;;;;5.30;2.90;;;;;;;12.94;74.72;99753.23;104745;1293;22951;-36
2023/01/01 09:28:36;;;;;;;6.10;2.70;;;;;;;13.00;74.35;99746.14;104743;1292;22679;-34
2023/01/01 09:31:05;;;;;;;6.80;3.80;;;;;;;12.94;74.48;99746.36;104662;1303;22783;-32
2023/01/01 09:33:32;;;;;;;6.20;3.00;;;;;;;12.94;74.84;99747.70;104923;1289;25368;-35
2023/01/01 09:36:14;;;;;;;6.20;3.30;;;;;;;12.93;74.87;99743.27;104757;1292;23047;-35
2023/01/01 09:38:40;;;;;;;4.50;2.70;;;;;;;12.97;74.89;99748.80;104692;1292;22627;-35
2023/01/01 09:41:18;;;;;;;5.50;3.30;;;;;;;12.99;75.62;99747.14;104669;1295;24452;-31
2023/01/01 09:44:02;;;;;;;15.90;3.80;;;;;;;13.03;75.29;99750.46;104810;1292;23090;-35
2023/01/01 09:46:27;;;;;;;8.40;4.00;;;;;;;13.11;74.77;99748.33;104666;1292;24301;-35
2023/01/01 09:48:56;;;;;;;7.00;3.90;;;;;;;13.06;74.81;99749.30;104847;1292;22661;-35
2023/01/01 09:51:21;;;;;;;5.60;2.60;;;;;;;13.00;75.66;99748.84;104775;1303;24199;-38
2023/01/01 09:54:02;;;;;;;6.50;3.10;;;;;;;13.10;75.02;99743.14;104829;1303;22560;-35
2023/01/01 09:56:28;;;;;;;5.30;2.60;;;;;;;13.11;75.00;99741.48;104723;1303;24384;-34
2023/01/01 09:58:57;;;;;;;17.70;2.70;;;;;;;13.21;75.31;99734.33;104790;1302;24424;-30
2023/01/01 10:01:48;;;;;;;10.00;3.30;;;;;;;13.52;74.19;99734.70;104827;1301;24839;-31
2023/01/01 10:04:45;;;;;;;3.50;2.60;;;;;;;13.62;74.18;99733.87;104746;1302;24433;-35
2023/01/01 10:07:25;;;;;;;10.50;3.30;;;;;;;13.85;72.88;99733.06;104688;1286;24500;-31
2023/01/01 10:10:01;;;;;;;6.70;2.50;;;;;;;14.00;71.62;99735.33;104753;1292;22559;-35
2023/01/01 10:12:51;;;;;;;9.70;3.70;;;;;;;14.17;69.86;99731.64;104772;1289;22690;-31
2023/01/01 10:15:25;;;;;;;5.30;3.30;;;;;;;14.29;69.61;99733.34;104827;1293;24533;-34
2023/01/01 10:17:56;;;;;;;5.70;3.70;;;;;;;14.41;68.69;99724.33;104709;1289;23992;-34
2023/01/01 10:20:41;;;;;;;6.40;2.80;;;;;;;14.42;67.01;99734.22;104881;1293;23460;-31
2023/01/01 10:23:21;;;;;;;4.40;3.40;;;;;;;14.30;68.09;99725.70;104732;1292;24422;-31
2023/01/01 10:25:47;;;;;;;4.30;3.20;;;;;;;14.26;67.44;99731.08;104800;1292;22669;-35
2023/01/01 10:28:18;;;;;;;6.30;3.70;;;;;;;14.25;67.72;99730.61;104769;1303;24262;-35
2023/01/01 10:30:44;;;;;;;3.50;2.90;;;;;;;14.14;67.20;99728.02;104749;1293;22961;-31
2023/01/01 10:33:11;;;;;;;8.60;3.70;;;;;;;14.04;67.83;99723.20;104852;1303;24304;-37
2023/01/01 10:35:46;;;;;;;9.70;3.60;;;;;;;13.99;68.15;99729.85;104868;1293;22668;-31
2023/01/01 10:38:21;;;;;;;7.30;4.00;;;;;;;14.01;68.55;99734.91;104761;1292;23925;-33
2023/01/01 10:40:47;;;;;;;13.20;4.10;;;;;;;14.04;68.09;99733.57;104785;1303;22789;-30
2023/01/01 10:43:12;;;;;;;7.50;4.00;;;;;;;14.14;68.01;99738.13;104545;1296;23191;-34
2023/01/01 10:45:44;;;;;;;9.80;3.30;;;;;;;14.33;68.21;99731.71;104726;1303;22630;-34
2023/01/01 10:48:16;;;;;;;5.70;3.60;;;;;;;14.64;68.19;99731.08;104564;1303;25425;-30
2023/01/01 10:50:48;;;;;;;3.80;3.00;;;;;;;14.91;66.45;99725.05;104885;1292;25326;-35
2023/01/01 10:53:33;;;;;;;17.90;3.10;;;;;;;15.01;65.84;99721.32;104548;1303;23029;-35
2023/01/01 10:56:08;;;;;;;4.90;3.70;;;;;;;15.22;63.60;99713.69;104813;1303;24529;-31
2023/01/01 10:58:54;;;;;;;10.70;4.10;;;;;;;15.26;63.42;99710.55;104541;1301;24268;-35
2023/01/01 11:01:32;;;;;;;4.70;3.10;;;;;;;15.22;62.84;99703.70;104858;1289;22559;-36
2023/01/01 11:44:09;;;;;;;4.40;3.10;;;;;;;16.86;55.39;99685.08;104400;1296;557399;-33
2023/01/01 11:46:36;;;;;;;8.00;2.90;;;;;;;16.90;54.68;99677.63;104161;1303;325945;-35
2023/01/01 11:49:02;;;;;;;7.40;3.30;;;;;;;17.10;54.08;99677.17;104592;1292;24305;-35
2023/01/01 11:51:30;;;;;;;5.30;3.50;;;;;;;17.18;53.44;99680.25;104698;1301;22792;-35
2023/01/01 11:54:09;;;;;;;5.30;2.70;;;;;;;16.93;54.20;99686.60;104535;1293;22820;-32
2023/01/01 11:56:35;;;;;;;3.70;2.10;;;;;;;16.85;54.41;99694.53;104554;1293;22577;-35
2023/01/01 11:59:11;;;;;;;3.30;2.10;;;;;;;16.77;54.49;99694.20;104613;1297;22814;-31
2023/01/01 12:01:45;;;;;;;3.20;2.10;;;;;;;16.35;54.45;99698.14;104472;1301;23043;-35
2023/01/01 12:04:19;;;;;;;8.40;1.90;;;;;;;16.34;55.06;99705.58;104547;1289;23994;-31
2023/01/01 12:07:01;;;;;;;5.30;2.80;;;;;;;16.62;55.09;99694.27;104494;1291;22559;-35
2023/01/01 12:09:45;;;;;;;4.80;2.40;;;;;;;16.82;54.84;99695.43;104542;1293;22559;-31
2023/01/01 12:12:34;;;;;;;5.00;2.80;;;;;;;17.02;53.77;99697.70;104423;1294;24447;-35
2023/01/01 12:15:03;;;;;;;9.70;2.40;;;;;;;17.01;53.83;99698.96;104619;1304;22797;-34
2023/01/01 12:17:46;;;;;;;4.30;2.80;;;;;;;16.87;54.74;99697.67;104452;1304;22812;-34
2023/01/01 12:20:27;;;;;;;4.20;2.50;;;;;;;16.49;55.73;99696.81;104468;1303;22574;-31
2023/01/01 12:22:57;;;;;;;4.80;2.70;;;;;;;16.45;56.50;99693.73;104522;1304;22817;-31
2023/01/01 12:25:23;;;;;;;5.10;3.00;;;;;;;16.43;56.68;99689.72;104620;1294;23084;-34
2023/01/01 12:28:12;;;;;;;5.30;3.00;;;;;;;16.21;56.99;99687.06;104479;1294;22670;-35
2023/01/01 12:30:44;;;;;;;5.80;2.60;;;;;;;15.94;58.28;99685.27;104549;1298;24318;-34
2023/01/01 12:33:24;;;;;;;7.70;3.90;;;;;;;16.09;58.48;99687.77;104542;1294;22561;-35
2023/01/01 12:36:21;;;;;;;3.70;2.90;;;;;;;16.22;58.34;99690.01;104494;1294;22660;-35
2023/01/01 12:39:19;;;;;;;8.50;4.20;;;;;;;16.12;58.44;99692.38;104521;1295;22675;-35
2023/01/01 12:42:08;;;;;;;10.80;4.50;;;;;;;16.03;58.16;99700.26;104578;1304;23160;-31
2023/01/01 12:44:56;;;;;;;20.00;2.40;;;;;;;15.99;58.37;99702.55;104547;1304;23002;-33
2023/01/01 12:47:35;;;;;;;6.60;3.60;;;;;;;15.78;59.62;99697.80;104415;1291;22723;-33
2023/01/01 12:50:25;;;;;;;7.40;3.80;;;;;;;15.68;60.21;99705.00;104482;1304;22670;-34
2023/01/01 12:53:13;;;;;;;9.80;3.80;;;;;;;15.45;61.14;99704.44;104575;1293;23031;-31
2023/01/01 12:56:01;;;;;;;4.40;3.60;;;;;;;15.24;62.14;99707.23;104487;1289;22573;-30
2023/01/01 12:58:35;;;;;;;5.30;3.30;;;;;;;15.11;63.04;99712.44;104449;1294;22653;-32
2023/01/01 13:01:08;;;;;;;5.50;4.10;;;;;;;15.01;63.69;99714.58;104562;1297;23932;-32
2023/01/01 13:03:46;;;;;;;14.70;3.60;;;;;;;15.30;63.17;99703.64;104433;1291;25996;-36